createdAt,value
2017-09-27T00:01:59.513Z,12.00
2017-09-27T00:04:27.065Z,12.00
2017-09-27T00:06:55.421Z,12.00
2017-09-27T00:09:22.993Z,11.90
2017-09-27T00:11:51.323Z,12.00
2017-09-27T00:14:18.887Z,11.90
2017-09-27T00:16:46.463Z,12.00
2017-09-27T00:19:14.077Z,12.00
2017-09-27T00:21:41.653Z,11.90
2017-09-27T00:24:09.317Z,11.90
2017-09-27T00:26:36.882Z,11.90
2017-09-27T00:29:04.446Z,11.90
2017-09-27T00:31:31.996Z,11.80
2017-09-27T00:33:59.566Z,11.70
2017-09-27T00:36:27.130Z,11.60
2017-09-27T00:38:54.725Z,11.60
2017-09-27T00:41:22.278Z,11.60
2017-09-27T00:43:49.832Z,11.60
2017-09-27T00:46:37.771Z,11.60
2017-09-27T00:49:06.089Z,11.50
2017-09-27T00:51:33.650Z,11.50
2017-09-27T00:54:01.210Z,11.50
2017-09-27T00:56:28.806Z,11.50
2017-09-27T00:58:56.392Z,11.40
2017-09-27T01:01:24.746Z,11.40
2017-09-27T01:03:52.316Z,11.40
2017-09-27T01:06:20.757Z,11.30
2017-09-27T01:08:48.314Z,11.30
2017-09-27T01:11:15.889Z,11.30
2017-09-27T01:13:43.447Z,11.30
2017-09-27T01:16:11.025Z,11.30
2017-09-27T01:18:38.652Z,11.30
2017-09-27T01:21:06.215Z,11.30
2017-09-27T01:23:33.782Z,11.30
2017-09-27T01:26:01.342Z,11.30
2017-09-27T01:28:28.949Z,11.30
2017-09-27T01:30:57.345Z,11.30
2017-09-27T01:33:25.680Z,11.30
2017-09-27T01:35:53.271Z,11.30
2017-09-27T01:38:21.597Z,11.20
2017-09-27T01:40:49.200Z,11.20
2017-09-27T01:43:16.763Z,11.20
2017-09-27T01:45:44.326Z,11.10
2017-09-27T01:48:12.645Z,11.10
2017-09-27T01:50:40.263Z,11.00
2017-09-27T01:53:08.624Z,11.00
2017-09-27T01:55:36.177Z,11.00
2017-09-27T01:58:03.762Z,11.00
2017-09-27T02:00:32.095Z,11.00
2017-09-27T02:02:59.672Z,11.00
2017-09-27T02:05:27.244Z,10.90
2017-09-27T02:07:54.859Z,10.90
2017-09-27T02:10:22.451Z,10.90
2017-09-27T02:12:50.046Z,10.80
2017-09-27T02:15:18.370Z,10.70
2017-09-27T02:17:45.934Z,10.70
2017-09-27T02:20:13.501Z,10.60
2017-09-27T02:22:41.083Z,10.70
2017-09-27T02:25:08.629Z,10.50
2017-09-27T02:27:36.232Z,10.50
2017-09-27T02:30:04.542Z,10.50
2017-09-27T02:32:32.113Z,10.50
2017-09-27T02:34:59.678Z,10.50
2017-09-27T02:37:27.298Z,10.60
2017-09-27T02:39:54.882Z,10.60
2017-09-27T02:42:22.432Z,10.70
2017-09-27T02:44:49.981Z,10.70
2017-09-27T02:47:17.537Z,10.70
2017-09-27T02:49:45.891Z,10.80
2017-09-27T02:52:13.503Z,10.80
2017-09-27T02:54:41.098Z,10.90
2017-09-27T02:57:08.649Z,10.80
2017-09-27T02:59:36.235Z,10.90
2017-09-27T03:02:03.788Z,10.90
2017-09-27T03:04:31.338Z,10.90
2017-09-27T03:06:58.927Z,11.00
2017-09-27T03:09:27.271Z,10.90
2017-09-27T03:11:54.836Z,10.90
2017-09-27T03:14:22.398Z,10.90
2017-09-27T03:16:49.969Z,11.00
2017-09-27T03:19:17.530Z,11.00
2017-09-27T03:21:45.109Z,11.00
2017-09-27T03:24:13.426Z,11.10
2017-09-27T03:26:40.967Z,11.10
2017-09-27T03:29:08.553Z,11.10
2017-09-27T03:31:36.125Z,11.10
2017-09-27T03:34:03.701Z,11.10
2017-09-27T03:36:31.273Z,11.10
2017-09-27T03:38:59.619Z,11.20
2017-09-27T03:41:27.193Z,11.20
2017-09-27T03:43:54.769Z,11.20
2017-09-27T03:46:22.318Z,11.20
2017-09-27T03:48:49.855Z,11.20
2017-09-27T03:51:17.412Z,11.30
2017-09-27T03:53:44.977Z,11.30
2017-09-27T03:56:12.530Z,11.30
2017-09-27T03:58:40.078Z,11.40
2017-09-27T04:01:07.630Z,11.40
2017-09-27T04:03:35.980Z,11.40
2017-09-27T04:06:04.303Z,11.40
2017-09-27T04:08:31.902Z,11.50
2017-09-27T04:10:59.471Z,11.40
2017-09-27T04:13:27.806Z,11.40
2017-09-27T04:15:55.348Z,11.40
2017-09-27T04:18:22.902Z,11.40
2017-09-27T04:20:50.448Z,11.40
2017-09-27T04:23:18.029Z,11.40
2017-09-27T04:25:45.595Z,11.40
2017-09-27T04:28:13.168Z,11.40
2017-09-27T04:30:40.730Z,11.40
2017-09-27T04:33:08.309Z,11.40
2017-09-27T04:35:35.893Z,11.40
2017-09-27T04:38:04.201Z,11.40
2017-09-27T04:40:31.761Z,11.40
2017-09-27T04:42:59.337Z,11.40
2017-09-27T04:45:26.890Z,11.40
2017-09-27T04:47:54.466Z,11.40
2017-09-27T04:50:22.030Z,11.40
2017-09-27T04:52:49.608Z,11.40
2017-09-27T04:55:17.179Z,11.40
2017-09-27T04:57:45.550Z,11.30
2017-09-27T05:00:13.126Z,11.30
2017-09-27T05:02:40.693Z,11.40
2017-09-27T05:05:08.273Z,11.40
2017-09-27T05:07:35.953Z,11.40
2017-09-27T05:10:03.518Z,11.40
2017-09-27T05:12:31.082Z,11.40
2017-09-27T05:14:58.654Z,11.50
2017-09-27T05:17:26.241Z,11.50
2017-09-27T05:19:53.836Z,11.50
2017-09-27T05:22:21.448Z,11.50
2017-09-27T05:24:49.014Z,11.60
2017-09-27T05:27:16.587Z,11.50
2017-09-27T05:29:44.917Z,11.50
2017-09-27T05:32:12.518Z,11.50
2017-09-27T05:34:40.069Z,11.60
2017-09-27T05:37:07.637Z,11.60
2017-09-27T05:39:35.222Z,11.60
2017-09-27T05:42:02.813Z,11.60
2017-09-27T05:44:30.394Z,11.60
2017-09-27T05:46:57.943Z,11.60
2017-09-27T05:49:25.542Z,11.70
2017-09-27T05:51:53.869Z,11.70
2017-09-27T05:54:21.449Z,11.70
2017-09-27T05:56:48.999Z,11.70
2017-09-27T05:59:16.575Z,11.70
2017-09-27T06:01:44.165Z,11.80
2017-09-27T06:04:12.501Z,11.80
2017-09-27T06:06:40.043Z,11.80
2017-09-27T06:09:07.610Z,11.80
2017-09-27T06:11:35.182Z,11.90
2017-09-27T06:14:02.734Z,11.90
2017-09-27T06:16:30.297Z,11.90
2017-09-27T06:18:57.873Z,12.00
2017-09-27T06:21:25.440Z,12.00
2017-09-27T06:23:52.998Z,12.00
2017-09-27T06:26:20.616Z,12.10
2017-09-27T06:28:48.197Z,12.10
2017-09-27T06:31:15.764Z,12.10
2017-09-27T06:33:43.334Z,12.10
2017-09-27T06:36:10.917Z,12.20
2017-09-27T06:38:39.262Z,12.20
2017-09-27T06:41:06.818Z,12.20
2017-09-27T06:43:34.408Z,12.30
2017-09-27T06:46:01.976Z,12.30
2017-09-27T06:48:30.292Z,12.30
2017-09-27T06:50:57.866Z,12.30
2017-09-27T06:53:25.459Z,12.50
2017-09-27T06:55:53.029Z,12.50
2017-09-27T06:58:20.589Z,12.60
2017-09-27T07:00:48.167Z,12.60
2017-09-27T07:03:15.736Z,12.60
2017-09-27T07:05:43.289Z,12.60
2017-09-27T07:08:10.853Z,12.80
2017-09-27T07:10:38.433Z,13.00
2017-09-27T07:13:06.021Z,13.10
2017-09-27T07:15:33.589Z,13.10
2017-09-27T07:18:01.153Z,13.30
2017-09-27T07:20:28.718Z,13.30
2017-09-27T07:22:56.535Z,13.40
2017-09-27T07:25:24.128Z,13.50
2017-09-27T07:27:51.712Z,13.30
2017-09-27T07:30:19.264Z,13.50
2017-09-27T07:32:46.880Z,13.50
2017-09-27T07:35:14.445Z,13.70
2017-09-27T07:37:42.002Z,13.90
2017-09-27T07:40:09.568Z,13.60
2017-09-27T07:42:37.132Z,13.70
2017-09-27T07:45:04.715Z,13.80
2017-09-27T07:47:33.060Z,14.00
2017-09-27T07:50:01.412Z,13.90
2017-09-27T07:52:29.747Z,13.70
2017-09-27T07:54:57.321Z,13.70
2017-09-27T07:57:24.879Z,14.00
2017-09-27T07:59:52.451Z,14.40
2017-09-27T08:02:20.040Z,14.50
2017-09-27T08:04:48.353Z,14.50
2017-09-27T08:07:15.950Z,14.50
2017-09-27T08:09:43.529Z,14.40
2017-09-27T08:12:11.889Z,14.30
2017-09-27T08:14:39.425Z,14.30
2017-09-27T08:17:07.020Z,14.30
2017-09-27T08:19:35.370Z,14.10
2017-09-27T08:22:02.954Z,14.10
2017-09-27T08:24:31.273Z,13.90
2017-09-27T08:26:58.854Z,13.80
2017-09-27T08:29:26.401Z,13.80
2017-09-27T08:31:53.970Z,13.90
2017-09-27T08:34:21.560Z,14.20
2017-09-27T08:36:49.129Z,14.40
2017-09-27T08:39:16.695Z,14.30
2017-09-27T08:41:45.046Z,14.50
2017-09-27T08:44:12.608Z,14.50
2017-09-27T08:46:40.196Z,14.70
2017-09-27T08:49:08.533Z,15.00
2017-09-27T08:51:36.133Z,14.90
2017-09-27T08:54:04.468Z,15.30
2017-09-27T08:56:32.040Z,15.20
2017-09-27T08:58:59.599Z,15.40
2017-09-27T09:01:27.234Z,15.60
2017-09-27T09:03:54.784Z,15.70
2017-09-27T09:06:22.368Z,15.70
2017-09-27T09:08:49.948Z,15.80
2017-09-27T09:11:17.502Z,15.90
2017-09-27T09:13:45.094Z,16.00
2017-09-27T09:16:13.426Z,15.90
2017-09-27T09:18:40.981Z,15.90
2017-09-27T09:21:08.521Z,15.70
2017-09-27T09:23:36.109Z,15.80
2017-09-27T09:26:03.664Z,15.80
2017-09-27T09:28:31.224Z,16.10
2017-09-27T09:30:58.757Z,15.80
2017-09-27T09:33:26.314Z,15.70
2017-09-27T09:35:53.882Z,15.80
2017-09-27T09:38:21.448Z,16.00
2017-09-27T09:40:49.009Z,16.30
2017-09-27T09:43:16.571Z,16.40
2017-09-27T09:45:44.124Z,16.60
2017-09-27T09:48:11.705Z,16.90
2017-09-27T09:50:39.273Z,17.20
2017-09-27T09:53:06.837Z,17.00
2017-09-27T09:55:34.417Z,17.10
2017-09-27T09:58:01.958Z,17.00
2017-09-27T10:00:29.548Z,16.90
2017-09-27T10:02:57.126Z,16.70
2017-09-27T10:05:24.714Z,16.90
2017-09-27T10:07:52.290Z,17.20
2017-09-27T10:10:19.877Z,17.30
2017-09-27T10:12:48.203Z,17.80
2017-09-27T10:15:16.554Z,18.10
2017-09-27T10:17:44.878Z,17.90
2017-09-27T10:20:12.454Z,17.90
2017-09-27T10:22:40.014Z,17.80
2017-09-27T10:25:07.602Z,18.20
2017-09-27T10:27:35.921Z,18.50
2017-09-27T10:30:03.487Z,18.50
2017-09-27T10:32:31.104Z,18.80
2017-09-27T10:34:59.446Z,18.90
2017-09-27T10:37:26.996Z,18.90
2017-09-27T10:39:54.563Z,19.00
2017-09-27T10:42:22.109Z,18.90
2017-09-27T10:44:49.715Z,19.00
2017-09-27T10:47:18.077Z,19.30
2017-09-27T10:49:45.634Z,19.30
2017-09-27T10:52:13.184Z,19.50
2017-09-27T10:54:40.760Z,19.40
2017-09-27T10:57:08.317Z,19.40
2017-09-27T10:59:35.878Z,19.60
2017-09-27T11:02:03.447Z,20.20
2017-09-27T11:04:31.018Z,19.90
2017-09-27T11:06:59.347Z,19.00
2017-09-27T11:09:26.933Z,19.00
2017-09-27T11:11:54.526Z,19.40
2017-09-27T11:14:22.845Z,19.70
2017-09-27T11:16:50.442Z,19.70
2017-09-27T11:19:18.032Z,20.10
2017-09-27T11:21:46.352Z,21.00
2017-09-27T11:24:13.907Z,21.00
2017-09-27T11:26:41.462Z,21.50
2017-09-27T11:29:09.041Z,21.30
2017-09-27T11:31:36.582Z,21.00
2017-09-27T11:34:04.153Z,21.40
2017-09-27T11:36:31.704Z,21.80
2017-09-27T11:38:59.286Z,21.90
2017-09-27T11:41:26.905Z,22.40
2017-09-27T11:43:54.471Z,22.60
2017-09-27T11:46:22.026Z,22.70
2017-09-27T11:48:49.616Z,22.50
2017-09-27T11:51:17.190Z,22.80
2017-09-27T11:53:44.735Z,23.10
2017-09-27T11:56:12.304Z,23.30
2017-09-27T11:58:39.849Z,23.60
2017-09-27T12:01:07.434Z,23.50
2017-09-27T12:03:34.986Z,23.50
2017-09-27T12:06:02.560Z,23.00
2017-09-27T12:08:30.117Z,22.90
2017-09-27T12:10:57.693Z,23.40
2017-09-27T12:13:26.046Z,23.70
2017-09-27T12:15:53.627Z,23.70
2017-09-27T12:18:21.960Z,23.20
2017-09-27T12:20:49.514Z,23.20
2017-09-27T12:23:17.081Z,22.90
2017-09-27T12:25:44.649Z,23.50
2017-09-27T12:28:12.218Z,24.10
2017-09-27T12:30:39.752Z,24.30
2017-09-27T12:33:07.329Z,24.50
2017-09-27T12:35:34.917Z,24.90
2017-09-27T12:38:02.490Z,25.20
2017-09-27T12:40:30.827Z,24.70
2017-09-27T12:42:58.378Z,24.70
2017-09-27T12:45:25.970Z,24.70
2017-09-27T12:47:53.547Z,24.80
2017-09-27T12:50:21.898Z,24.50
2017-09-27T12:52:49.476Z,24.50
2017-09-27T12:55:17.066Z,23.40
2017-09-27T12:57:44.628Z,23.80
2017-09-27T13:00:12.206Z,24.50
2017-09-27T13:02:39.774Z,24.40
2017-09-27T13:05:07.324Z,24.00
2017-09-27T13:07:34.903Z,24.20
2017-09-27T13:10:02.460Z,24.70
2017-09-27T13:12:30.045Z,24.60
2017-09-27T13:14:57.614Z,24.80
2017-09-27T13:17:25.231Z,24.80
2017-09-27T13:19:52.799Z,24.80
2017-09-27T13:22:20.356Z,25.40
2017-09-27T13:24:47.930Z,25.00
2017-09-27T13:27:15.477Z,25.00
2017-09-27T13:29:43.034Z,25.60
2017-09-27T13:32:10.602Z,25.30
2017-09-27T13:34:38.172Z,25.00
2017-09-27T13:37:05.734Z,24.70
2017-09-27T13:39:33.275Z,24.80
2017-09-27T13:42:00.830Z,24.90
2017-09-27T13:44:28.439Z,24.40
2017-09-27T13:46:56.849Z,24.20
2017-09-27T13:49:24.497Z,24.20
2017-09-27T13:51:52.833Z,24.20
2017-09-27T13:54:20.406Z,24.10
2017-09-27T13:56:47.973Z,24.20
2017-09-27T13:59:15.642Z,24.80
2017-09-27T14:01:43.988Z,25.10
2017-09-27T14:04:11.542Z,25.00
2017-09-27T14:06:39.134Z,24.80
2017-09-27T14:09:06.712Z,24.30
2017-09-27T14:11:35.065Z,24.00
2017-09-27T14:14:02.650Z,24.00
2017-09-27T14:16:30.987Z,24.10
2017-09-27T14:18:58.538Z,24.10
2017-09-27T14:21:26.137Z,24.40
2017-09-27T14:23:53.690Z,24.20
2017-09-27T14:26:21.275Z,24.10
2017-09-27T14:28:49.585Z,23.90
2017-09-27T14:31:17.176Z,23.90
2017-09-27T14:33:44.741Z,24.10
2017-09-27T14:36:12.344Z,24.10
2017-09-27T14:38:39.920Z,24.10
2017-09-27T14:41:07.474Z,24.50
2017-09-27T14:43:35.042Z,24.20
2017-09-27T14:46:02.622Z,24.10
2017-09-27T14:48:30.211Z,24.00
2017-09-27T14:50:58.535Z,24.70
2017-09-27T14:53:26.107Z,24.60
2017-09-27T14:55:53.697Z,24.20
2017-09-27T14:58:22.302Z,24.50
2017-09-27T15:00:50.683Z,24.20
2017-09-27T15:03:19.099Z,24.00
2017-09-27T15:05:46.696Z,23.90
2017-09-27T15:08:14.300Z,23.80
2017-09-27T15:10:41.857Z,23.90
2017-09-27T15:13:09.438Z,23.30
2017-09-27T15:15:37.025Z,23.00
2017-09-27T15:18:04.651Z,22.70
2017-09-27T15:20:32.249Z,22.30
2017-09-27T15:22:59.822Z,22.10
2017-09-27T15:25:27.524Z,22.00
2017-09-27T15:27:55.134Z,22.00
2017-09-27T15:30:22.746Z,22.00
2017-09-27T15:32:51.085Z,21.80
2017-09-27T15:35:19.624Z,21.80
2017-09-27T15:37:47.218Z,21.90
2017-09-27T15:40:14.838Z,22.00
2017-09-27T15:42:42.455Z,21.80
2017-09-27T15:45:10.027Z,21.80
2017-09-27T15:47:37.642Z,21.90
2017-09-27T15:50:05.242Z,21.70
2017-09-27T15:52:32.822Z,21.70
2017-09-27T15:55:01.159Z,21.50
2017-09-27T15:57:28.748Z,21.40
2017-09-27T15:59:57.103Z,21.40
2017-09-27T16:02:24.677Z,21.40
2017-09-27T16:04:52.256Z,21.40
2017-09-27T16:07:20.590Z,21.30
2017-09-27T16:09:48.172Z,21.30
2017-09-27T16:12:15.738Z,21.40
2017-09-27T16:14:43.377Z,21.30
2017-09-27T16:17:10.934Z,21.40
2017-09-27T16:19:38.558Z,21.50
2017-09-27T16:22:06.134Z,21.50
2017-09-27T16:24:33.680Z,21.60
2017-09-27T16:27:01.274Z,21.50
2017-09-27T16:29:28.832Z,21.40
2017-09-27T16:31:56.404Z,21.40
2017-09-27T16:34:23.987Z,21.40
2017-09-27T16:36:51.609Z,21.40
2017-09-27T16:39:19.201Z,21.30
2017-09-27T16:41:47.684Z,21.20
2017-09-27T16:44:15.288Z,21.20
2017-09-27T16:46:42.834Z,21.10
2017-09-27T16:49:11.198Z,21.00
2017-09-27T16:51:39.515Z,20.90
2017-09-27T16:54:07.785Z,20.90
2017-09-27T16:56:35.696Z,20.70
2017-09-27T16:59:03.295Z,20.60
2017-09-27T17:01:31.634Z,20.40
2017-09-27T17:03:59.218Z,20.30
2017-09-27T17:06:27.543Z,20.10
2017-09-27T17:08:55.114Z,20.10
2017-09-27T17:11:22.685Z,20.00
2017-09-27T17:13:50.243Z,19.90
2017-09-27T17:16:17.829Z,19.70
2017-09-27T17:18:45.383Z,19.60
2017-09-27T17:21:12.986Z,19.50
2017-09-27T17:23:40.557Z,19.40
2017-09-27T17:26:08.112Z,19.20
2017-09-27T17:28:35.668Z,19.00
2017-09-27T17:31:03.244Z,18.90
2017-09-27T17:33:30.888Z,18.80
2017-09-27T17:35:58.476Z,18.70
2017-09-27T17:38:26.040Z,18.70
2017-09-27T17:40:53.607Z,18.60
2017-09-27T17:43:21.213Z,18.50
2017-09-27T17:45:49.560Z,18.40
2017-09-27T17:48:17.120Z,18.30
2017-09-27T17:50:44.732Z,18.30
2017-09-27T17:53:12.316Z,18.30
2017-09-27T17:55:40.756Z,18.20
2017-09-27T17:58:08.361Z,18.10
2017-09-27T18:00:35.955Z,18.00
2017-09-27T18:03:03.538Z,18.00
2017-09-27T18:05:37.486Z,17.80
2017-09-27T18:08:21.891Z,17.80
2017-09-27T18:10:57.171Z,17.70
2017-09-27T18:13:30.487Z,17.70
2017-09-27T18:16:17.881Z,17.60
2017-09-27T18:18:46.383Z,17.50
2017-09-27T18:21:13.965Z,17.40
2017-09-27T18:23:41.826Z,17.40
2017-09-27T18:26:09.431Z,17.30
2017-09-27T18:28:37.808Z,17.30
2017-09-27T18:31:06.312Z,17.20
2017-09-27T18:33:33.901Z,17.20
2017-09-27T18:36:01.466Z,17.20
2017-09-27T18:38:29.063Z,17.10
2017-09-27T18:40:57.382Z,17.10
2017-09-27T18:43:24.957Z,17.00
2017-09-27T18:45:52.542Z,17.00
2017-09-27T18:48:20.145Z,16.90
2017-09-27T18:50:47.725Z,16.80
2017-09-27T18:53:15.297Z,16.80
2017-09-27T18:55:42.860Z,16.80
2017-09-27T18:58:10.479Z,16.70
2017-09-27T19:00:43.699Z,16.70
2017-09-27T19:03:11.387Z,16.70
2017-09-27T19:05:39.063Z,16.60
2017-09-27T19:08:06.650Z,16.60
2017-09-27T19:10:35.027Z,16.60
2017-09-27T19:13:03.556Z,16.60
2017-09-27T19:15:31.144Z,16.60
2017-09-27T19:17:58.730Z,16.60
2017-09-27T19:20:27.068Z,16.50
2017-09-27T19:22:54.653Z,16.50
2017-09-27T19:25:22.234Z,16.50
2017-09-27T19:27:50.560Z,16.40
2017-09-27T19:30:18.488Z,16.40
2017-09-27T19:32:46.816Z,16.50
2017-09-27T19:35:14.375Z,16.50
2017-09-27T19:37:41.973Z,16.50
2017-09-27T19:40:10.362Z,16.40
2017-09-27T19:42:38.728Z,16.30
2017-09-27T19:45:07.088Z,16.30
2017-09-27T19:47:34.661Z,16.30
2017-09-27T19:50:02.280Z,16.30
2017-09-27T19:52:29.837Z,16.30
2017-09-27T19:54:57.424Z,16.30
2017-09-27T19:57:24.987Z,16.30
2017-09-27T19:59:52.564Z,16.30
2017-09-27T20:02:20.144Z,16.20
2017-09-27T20:04:48.518Z,16.00
2017-09-27T20:07:16.852Z,16.00
2017-09-27T20:09:44.444Z,16.00
2017-09-27T20:12:12.082Z,16.00
2017-09-27T20:14:39.682Z,16.00
2017-09-27T20:17:07.300Z,15.90
2017-09-27T20:19:34.901Z,15.90
2017-09-27T20:22:03.332Z,15.80
2017-09-27T20:24:30.886Z,15.80
2017-09-27T20:26:58.442Z,15.70
2017-09-27T20:29:26.001Z,15.70
2017-09-27T20:31:53.587Z,15.60
2017-09-27T20:34:21.141Z,15.60
2017-09-27T20:36:48.711Z,15.60
2017-09-27T20:39:16.292Z,15.60
2017-09-27T20:41:43.869Z,15.50
2017-09-27T20:44:12.197Z,15.60
2017-09-27T20:46:39.773Z,15.50
2017-09-27T20:49:07.341Z,15.60
2017-09-27T20:51:34.917Z,15.50
2017-09-27T20:54:03.246Z,15.50
2017-09-27T20:56:30.862Z,15.50
2017-09-27T20:58:58.422Z,15.50
2017-09-27T21:01:26.750Z,15.50
2017-09-27T21:03:54.360Z,15.40
2017-09-27T21:06:22.689Z,15.30
2017-09-27T21:08:50.309Z,15.30
2017-09-27T21:11:18.697Z,15.30
2017-09-27T21:13:46.278Z,15.30
2017-09-27T21:16:14.610Z,15.20
2017-09-27T21:18:42.963Z,15.20
2017-09-27T21:21:10.550Z,15.20
2017-09-27T21:23:38.901Z,15.20
2017-09-27T21:26:06.470Z,15.20
2017-09-27T21:28:34.077Z,15.20
2017-09-27T21:31:01.662Z,15.20
2017-09-27T21:33:29.211Z,15.20
2017-09-27T21:35:56.815Z,15.20
2017-09-27T21:38:24.389Z,15.10
2017-09-27T21:40:52.747Z,15.10
2017-09-27T21:43:20.326Z,15.10
2017-09-27T21:45:48.661Z,15.10
2017-09-27T21:48:16.276Z,15.10
2017-09-27T21:50:44.761Z,15.00
2017-09-27T21:53:13.109Z,15.00
2017-09-27T21:55:40.683Z,15.00
2017-09-27T21:58:08.271Z,14.90
2017-09-27T22:00:35.877Z,14.80
2017-09-27T22:03:03.473Z,14.80
2017-09-27T22:05:31.804Z,14.80
2017-09-27T22:07:59.371Z,14.80
2017-09-27T22:10:26.919Z,14.80
2017-09-27T22:12:54.493Z,14.80
2017-09-27T22:15:22.061Z,14.80
2017-09-27T22:17:49.630Z,14.70
2017-09-27T22:20:17.181Z,14.70
2017-09-27T22:22:44.753Z,14.70
2017-09-27T22:25:12.329Z,14.70
2017-09-27T22:27:40.662Z,14.70
2017-09-27T22:30:08.273Z,14.70
2017-09-27T22:32:36.602Z,14.70
2017-09-27T22:35:04.221Z,14.70
2017-09-27T22:37:32.549Z,14.60
2017-09-27T22:40:00.134Z,14.60
2017-09-27T22:42:27.690Z,14.60
2017-09-27T22:44:55.258Z,14.60
2017-09-27T22:47:22.809Z,14.60
2017-09-27T22:49:50.374Z,14.60
2017-09-27T22:52:17.925Z,14.60
2017-09-27T22:54:45.502Z,14.50
2017-09-27T22:57:13.850Z,14.50
2017-09-27T22:59:41.423Z,14.50
2017-09-27T23:02:08.990Z,14.50
2017-09-27T23:04:36.585Z,14.40
2017-09-27T23:07:04.150Z,14.40
2017-09-27T23:09:31.728Z,14.40
2017-09-27T23:11:59.324Z,14.40
2017-09-27T23:14:26.903Z,14.40
2017-09-27T23:16:55.258Z,14.30
2017-09-27T23:19:22.859Z,14.30
2017-09-27T23:21:50.444Z,14.20
2017-09-27T23:24:18.039Z,14.20
2017-09-27T23:26:45.630Z,14.20
2017-09-27T23:29:13.954Z,14.10
2017-09-27T23:31:41.558Z,14.10
2017-09-27T23:34:09.142Z,14.10
2017-09-27T23:36:36.725Z,14.20
2017-09-27T23:39:04.285Z,14.20
2017-09-27T23:41:31.848Z,14.20
2017-09-27T23:43:59.433Z,14.20
2017-09-27T23:46:26.995Z,14.20
2017-09-27T23:48:54.605Z,14.20
2017-09-27T23:51:22.188Z,14.20
2017-09-27T23:53:49.765Z,14.10
2017-09-27T23:56:17.334Z,14.10
2017-09-27T23:58:44.889Z,14.10
